createdAt,value
2023-05-16T00:03:52.138Z,52.78
2023-05-16T00:09:00.444Z,52.20
2023-05-16T00:14:08.478Z,52.93
2023-05-16T00:19:16.969Z,52.27
2023-05-16T00:24:24.354Z,52.10
2023-05-16T00:29:32.210Z,52.53
2023-05-16T00:34:41.131Z,53.70
2023-05-16T00:39:48.178Z,51.97
2023-05-16T00:44:55.682Z,52.10
2023-05-16T00:50:02.530Z,53.47
2023-05-16T00:55:11.828Z,51.57
2023-05-16T01:00:20.450Z,52.03
2023-05-16T01:05:27.913Z,52.17
2023-05-16T01:11:06.206Z,51.70
2023-05-16T01:16:34.837Z,51.70
2023-05-16T01:21:58.619Z,50.90
2023-05-16T01:27:06.878Z,53.70
2023-05-16T01:32:14.836Z,52.20
2023-05-16T01:37:26.466Z,50.10
2023-05-16T01:42:36.719Z,51.67
2023-05-16T01:47:49.182Z,51.23
2023-05-16T01:53:09.412Z,51.20
2023-05-16T01:58:20.705Z,51.77
2023-05-16T02:03:27.338Z,51.93
2023-05-16T02:08:34.853Z,51.33
2023-05-16T02:13:42.752Z,51.92
2023-05-16T02:18:50.193Z,50.90
2023-05-16T02:23:56.952Z,51.57
2023-05-16T02:34:11.798Z,51.03
2023-05-16T02:39:19.801Z,50.97
2023-05-16T02:44:27.412Z,51.33
2023-05-16T02:49:35.294Z,51.05
2023-05-16T02:54:42.196Z,50.92
2023-05-16T02:59:49.494Z,51.13
2023-05-16T03:04:56.986Z,50.90
2023-05-16T03:10:05.180Z,51.43
2023-05-16T03:15:12.688Z,51.37
2023-05-16T03:20:19.782Z,50.47
2023-05-16T03:25:27.591Z,51.30
2023-05-16T03:30:35.263Z,51.10
2023-05-16T03:35:43.916Z,51.13
2023-05-16T03:40:51.764Z,51.37
2023-05-16T03:45:59.447Z,52.20
2023-05-16T03:51:06.540Z,51.53
2023-05-16T03:56:14.148Z,52.83
2023-05-16T04:01:22.511Z,51.87
2023-05-16T04:06:29.718Z,51.77
2023-05-16T04:11:36.816Z,52.43
2023-05-16T04:16:44.082Z,52.58
2023-05-16T04:21:52.973Z,52.20
2023-05-16T04:26:59.909Z,52.17
2023-05-16T04:32:08.012Z,54.60
2023-05-16T04:37:15.054Z,57.47
2023-05-16T04:42:22.268Z,60.43
2023-05-16T04:47:29.630Z,62.80
2023-05-16T04:52:39.074Z,60.33
2023-05-16T04:57:47.664Z,58.63
2023-05-16T05:02:54.710Z,62.27
2023-05-16T05:08:01.809Z,62.33
2023-05-16T05:13:08.443Z,56.63
2023-05-16T05:18:15.870Z,70.47
2023-05-16T05:23:22.605Z,57.43
2023-05-16T05:28:29.986Z,55.30
2023-05-16T05:33:36.730Z,55.25
2023-05-16T05:43:49.825Z,55.20
2023-05-16T05:48:56.530Z,56.57
2023-05-16T05:54:04.812Z,57.70
2023-05-16T05:59:11.688Z,57.00
2023-05-16T06:04:18.302Z,56.80
2023-05-16T06:09:25.107Z,57.00
2023-05-16T06:14:32.973Z,58.20
2023-05-16T06:19:39.678Z,57.53
2023-05-16T06:24:46.609Z,58.60
2023-05-16T06:29:54.303Z,59.03
2023-05-16T06:35:01.147Z,58.83
2023-05-16T06:40:09.362Z,59.77
2023-05-16T06:45:17.198Z,60.03
2023-05-16T06:50:23.887Z,60.17
2023-05-16T06:55:31.134Z,60.30
2023-05-16T07:00:37.862Z,60.70
2023-05-16T07:05:44.749Z,61.30
2023-05-16T07:10:51.860Z,61.70
2023-05-16T07:15:58.344Z,61.23
2023-05-16T07:26:10.819Z,63.97
2023-05-16T07:36:24.246Z,62.23
2023-05-16T07:41:33.164Z,61.13
2023-05-16T07:46:40.212Z,60.90
2023-05-16T07:51:47.039Z,61.90
2023-05-16T07:56:53.872Z,61.37
2023-05-16T08:02:01.071Z,62.37
2023-05-16T08:07:08.092Z,60.47
2023-05-16T08:12:14.745Z,61.83
2023-05-16T08:17:22.982Z,60.57
2023-05-16T08:22:29.744Z,62.57
2023-05-16T08:27:37.203Z,61.87
2023-05-16T08:32:44.692Z,62.83
2023-05-16T08:37:51.898Z,61.67
2023-05-16T08:42:58.937Z,61.90
2023-05-16T08:48:10.108Z,62.10
2023-05-16T08:53:20.298Z,62.30
2023-05-16T08:58:30.314Z,62.05
2023-05-16T09:03:39.502Z,62.03
2023-05-16T09:08:47.072Z,61.50
2023-05-16T09:13:54.318Z,61.47
2023-05-16T09:19:03.101Z,61.57
2023-05-16T09:24:11.716Z,61.70
2023-05-16T09:29:19.644Z,62.77
2023-05-16T09:34:28.351Z,63.02
2023-05-16T09:39:35.103Z,62.25
2023-05-16T09:44:42.784Z,63.60
2023-05-16T09:49:54.916Z,62.63
2023-05-16T09:55:05.728Z,62.80
2023-05-16T10:00:14.480Z,63.87
2023-05-16T10:05:21.522Z,62.13
2023-05-16T10:10:30.043Z,60.97
2023-05-16T10:15:39.469Z,62.73
2023-05-16T10:20:50.749Z,63.20
2023-05-16T10:25:59.742Z,62.63
2023-05-16T10:31:09.676Z,64.40
2023-05-16T10:36:18.288Z,62.80
2023-05-16T10:41:26.432Z,62.77
2023-05-16T10:46:34.516Z,62.07
2023-05-16T10:51:41.684Z,62.53
2023-05-16T10:56:53.200Z,63.00
2023-05-16T11:02:00.120Z,61.73
2023-05-16T11:07:06.746Z,61.47
2023-05-16T11:12:15.257Z,69.20
2023-05-16T11:17:27.918Z,66.57
2023-05-16T11:22:43.480Z,62.67
2023-05-16T11:27:50.482Z,61.27
2023-05-16T11:32:58.097Z,60.33
2023-05-16T11:38:05.318Z,62.53
2023-05-16T11:43:13.143Z,62.04
2023-05-16T11:48:32.435Z,62.67
2023-05-16T11:53:30.005Z,62.23
2023-05-16T11:58:40.052Z,61.63
2023-05-16T12:03:48.839Z,61.50
2023-05-16T12:08:58.405Z,60.23
2023-05-16T12:14:10.370Z,60.73
2023-05-16T12:19:17.780Z,61.40
2023-05-16T12:24:30.063Z,61.43
2023-05-16T12:29:37.390Z,60.57
2023-05-16T12:34:57.155Z,61.60
2023-05-16T12:40:04.696Z,61.60
2023-05-16T12:45:19.675Z,60.20
2023-05-16T12:50:29.924Z,60.40
2023-05-16T12:55:38.000Z,60.52
2023-05-16T13:00:45.727Z,60.52
2023-05-16T13:05:53.486Z,60.40
2023-05-16T13:11:00.376Z,61.07
2023-05-16T13:16:09.044Z,61.90
2023-05-16T13:21:16.500Z,60.60
2023-05-16T13:26:25.006Z,60.53
2023-05-16T13:31:33.035Z,59.93
2023-05-16T13:36:52.986Z,59.98
2023-05-16T13:41:50.440Z,60.13
2023-05-16T13:46:59.618Z,59.80
2023-05-16T13:52:07.180Z,60.73
2023-05-16T13:57:15.081Z,61.53
2023-05-16T14:02:22.765Z,60.23
2023-05-16T14:07:29.516Z,60.53
2023-05-16T14:12:38.352Z,60.55
2023-05-16T14:17:45.271Z,60.73
2023-05-16T14:27:59.184Z,57.73
2023-05-16T14:33:06.747Z,58.93
2023-05-16T14:38:15.287Z,57.97
2023-05-16T14:43:22.132Z,58.43
2023-05-16T14:48:29.449Z,58.07
2023-05-16T14:53:38.378Z,58.07
2023-05-16T14:58:45.263Z,58.37
2023-05-16T15:03:56.027Z,57.47
2023-05-16T15:09:00.592Z,57.97
2023-05-16T15:14:08.438Z,57.07
2023-05-16T15:19:16.237Z,56.73
2023-05-16T15:24:23.558Z,57.23
2023-05-16T15:29:30.639Z,58.20
2023-05-16T15:34:38.739Z,57.30
2023-05-16T15:39:46.578Z,57.38
2023-05-16T15:44:54.047Z,57.37
2023-05-16T15:50:01.470Z,55.90
2023-05-16T15:55:09.688Z,56.53
2023-05-16T16:00:17.909Z,57.13
2023-05-16T16:05:25.161Z,56.57
2023-05-16T16:10:32.656Z,56.27
2023-05-16T16:15:42.362Z,56.80
2023-05-16T16:20:49.770Z,56.73
2023-05-16T16:25:56.806Z,57.30
2023-05-16T16:31:03.892Z,56.60
2023-05-16T16:41:18.960Z,56.90
2023-05-16T16:46:25.872Z,56.73
2023-05-16T16:51:36.075Z,56.97
2023-05-16T16:56:44.032Z,56.40
2023-05-16T17:01:51.766Z,56.47
2023-05-16T17:06:58.510Z,56.23
2023-05-16T17:12:07.484Z,55.17
2023-05-16T17:17:14.979Z,57.13
2023-05-16T17:22:22.838Z,57.33
2023-05-16T17:27:29.355Z,60.10
2023-05-16T17:37:43.007Z,58.42
2023-05-16T17:42:51.546Z,58.50
2023-05-16T17:47:58.421Z,58.40
2023-05-16T17:53:07.629Z,58.87
2023-05-16T17:58:15.003Z,57.77
2023-05-16T18:03:22.291Z,57.27
2023-05-16T18:08:30.486Z,58.20
2023-05-16T18:13:38.384Z,57.87
2023-05-16T18:18:46.372Z,58.30
2023-05-16T18:23:56.527Z,58.27
2023-05-16T18:29:04.026Z,58.33
2023-05-16T18:34:14.243Z,58.07
2023-05-16T18:39:21.511Z,59.33
2023-05-16T18:44:29.155Z,59.10
2023-05-16T18:49:37.835Z,57.55
2023-05-16T18:54:45.356Z,57.45
2023-05-16T18:59:55.714Z,58.57
2023-05-16T19:05:05.369Z,57.97
2023-05-16T19:10:13.359Z,57.87
2023-05-16T19:15:20.599Z,56.43
2023-05-16T19:20:29.141Z,57.58
2023-05-16T19:25:36.926Z,56.97
2023-05-16T19:30:44.028Z,57.87
2023-05-16T19:35:52.816Z,57.00
2023-05-16T19:41:01.390Z,57.93
2023-05-16T19:46:11.392Z,58.00
2023-05-16T19:51:29.510Z,56.47
2023-05-16T19:56:28.937Z,55.73
2023-05-16T20:01:35.884Z,56.43
2023-05-16T20:06:42.993Z,55.73
2023-05-16T20:11:50.738Z,55.90
2023-05-16T20:16:58.797Z,56.97
2023-05-16T20:22:05.647Z,54.90
2023-05-16T20:27:13.616Z,55.47
2023-05-16T20:32:23.999Z,55.53
2023-05-16T20:37:32.704Z,55.73
2023-05-16T20:42:42.551Z,57.88
2023-05-16T20:47:51.897Z,54.97
2023-05-16T20:53:00.968Z,54.60
2023-05-16T20:58:07.887Z,54.60
2023-05-16T21:03:14.977Z,54.17
2023-05-16T21:08:24.456Z,53.97
2023-05-16T21:13:32.673Z,54.25
2023-05-16T21:18:39.945Z,54.30
2023-05-16T21:23:47.857Z,53.90
2023-05-16T21:28:55.836Z,52.77
2023-05-16T21:34:06.574Z,53.33
2023-05-16T21:39:14.322Z,53.03
2023-05-16T21:44:21.042Z,51.70
2023-05-16T21:49:29.866Z,52.48
2023-05-16T21:54:37.302Z,51.97
2023-05-16T21:59:44.870Z,50.83
2023-05-16T22:04:53.219Z,50.93
2023-05-16T22:10:00.835Z,51.20
2023-05-16T22:15:10.099Z,51.33
2023-05-16T22:20:17.349Z,50.57
2023-05-16T22:25:25.286Z,51.20
2023-05-16T22:30:32.301Z,51.10
2023-05-16T22:35:40.117Z,50.57
2023-05-16T22:40:47.614Z,50.53
2023-05-16T22:45:54.645Z,50.93
2023-05-16T22:51:02.902Z,52.73
2023-05-16T22:56:10.462Z,50.77
2023-05-16T23:01:17.936Z,51.53
2023-05-16T23:06:25.220Z,51.73
2023-05-16T23:11:33.494Z,50.57
2023-05-16T23:16:41.260Z,50.17
2023-05-16T23:21:48.634Z,50.23
2023-05-16T23:26:55.750Z,50.03
2023-05-16T23:32:02.783Z,50.83
2023-05-16T23:37:10.016Z,50.07
2023-05-16T23:42:16.777Z,50.43
2023-05-16T23:47:24.168Z,50.47
2023-05-16T23:52:30.709Z,50.97
